AirNav  
 
Fuel
  

PAZK Skelton Airport
Eureka, Alaska, USA


FAA INFORMATION EFFECTIVE 10 JULY 2003

Location

FAA Identifier: AZK
Lat/Long: 61-56-13.185N / 147-10-07.914W
61-56.21975N / 147-10.13190W
61.9369958 / -147.1688650
(estimated)
Elevation: 3289 ft. / 1002.5 m (surveyed)
Variation: 27E (1985)

Airport Operations

Airport use: Open to the public
Sectional chart: ANCHORAGE BUY IT NOW
Control tower: no
ARTCC: ANCHORAGE CENTER
FSS: KENAI FLIGHT SERVICE STATION [1-800-WX-BRIEF]
NOTAMs facility: AZK (NOTAM-D service available)
Attendance: UNATNDD
Wind indicator: yes
Segmented circle: no
Beacon: unknown

Airport Communications

CTAF: 122.9
WX AWOS-3 at HNE (4 nm SW): 134.95 (907-822-3011)

Airport Services

Fuel available: MOGAS
MOGAS AVAILABLE 0700-2300. NEED TO CROSS ROAD TO PUMPS.
Airframe service: NONE
Powerplant service: NONE
Bottled oxygen: NONE
Bulk oxygen: NONE

Runway Information

Runway 3/21

Dimensions: 2400 x 60 ft. / 732 x 18 m
Surface: gravel, in poor condition
ROUGH & SOFT WHEN WET; DIPS & BUMPS IN RY.
RUNWAY 3  RUNWAY 21
Traffic pattern: leftleft
Obstructions: 15 ft. road
ACCESS ROAD CROSSES APCH END.
80 ft. trees, 2000 ft. from runway, 25:1 slope to clear

Airport Operational Statistics

Aircraft based on the field: 2
Single engine airplanes: 2
    
Aircraft operations: avg 79/week
61% local general aviation
37% air taxi
2% transient general aviation
<1% military

Additional Remarks

RY CONDITION NOT MONITORED; RECOMMEND VISUAL INSPECTION PRIOR TO USING.
ARPT MAINTENANCE BY LCL PARTIES ON AN UNOFFICIAL BASIS.
APCH END TO RY 3 DROPS OFF SHARPLEY.
ASSOC FSS OPERATES 0600-2130 LCL; OTHER TIMES CTC NORTHWAY FSS.
RY 03 LAST 1120 FT NARROWS TO 15 FT WIDE.
 
Loc | Ops | Rwys | Biz | Links
Com | Nav | Svcs | Stats | Notes
 
Area around PAZK (Skelton Airport)
 
No photo
 
Airport distance calculator
Flying to Skelton Airport? Find the distance to fly.

From to PAZK

Sunrise and sunset
Times for 16-Aug-2003
 Local
(UTC-8)
 Zulu
(UTC)
Morning civil twilight05:0113:01
Sunrise05:5713:57
Sunset21:4805:48
Evening civil twilight22:4406:44
 
METAR
PAZK 161555Z AUTO 00000KT 10SM SCT090 07/06 A2945 RMK AO1
PASP 161550Z 00000KT 2SM -RA BKN005 OVC030 07/06 A2942 RMK EPM NOSPECI
 

FBOs, Fuel Providers, and Aircraft Ground Support

 Business Name   Contact    Services / Description  Fuel Prices Comments
Eureka Lodge 907 8223808
[web site]
[email]
Aviation fuel, Public telephone, Restrooms, Restaurant, Lodging
Mogas 
$1.48 
 Updated 21-Jul-1999
  view  add
Update Fuel Prices
 

Would you like to see your business listed on this page?

 If your business provides an interesting product or service to pilots, flight crews, aircraft, or users of the Skelton Airport, you should consider listing it here.  To start the listing process, click on the button below
 
Add a business
 

Other Pages about Skelton Airport

Add a link
 
Copyright © AirNav, LLC. All rights reserved. Privacy Policy  Contact